Main page
METAR-TAF:

METAR-TAF

Airports :

Flag Island, Minnesota, United States

latitude: 49-19N, longitude: 094-54W, elevation: 329 m

Current weather observation

The report was made 33 minutes ago, at 19:15 UTC
Calm wind
Temperature 12°C
Humidity 47%
Pressure 1013 hPa
Visibility: 11.3 km
Clear sky

METAR: KFGN 231915Z AUTO 00000KT 7SM CLR 12/01 A2990 RMK AO2

Time: 14:48 (19:48 UTC)


TAF: missing

Weather observations and forecasts of more than 4000 airports (METAR and TAF reports).

The available stations are represented by yellow and red dots on the map.

Hover mouse over dot to see the name of the station.

Then click to see weather observations and forecasts.

To change the map : click on the green buttons with a black cross to zoom in, on the green button with a dash to zoom out, or on the green arrows for adjacent maps.


METAR-TAF: